No se requiere un especial cuidado respecto a la situación meteorológica.   -   No hay avisos

Informes METAR

 

LEZL - Sevilla, Spain
Distancia de la estación: ENE 8km
Actualización: 16/01/2017 11:30
Despejado
Despejado
 Viento de NE
Viento: NE 11 km/h
Temperatura: 9°C
Sensación térmica: 7°C
Rocío: 2°C
Humedad: 62%
Barómetro: 1028 hPa
Resumen: Despejado
Visibilidad: mayor de 10 km
2017/01/16 10:30 LEZL 161030Z 04006KT CAVOK 09/02 Q1028 NOSIG
LEMO - Morón, Spain
Distancia de la estación: SE 43km
Actualización: 16/01/2017 11:00
Despejado
Despejado
 Viento de NE
Viento: NE 11 km/h
Temperatura: 8°C
Sensación térmica: 6°C
Rocío: 1°C
Humedad: 62%
Barómetro: 1027 hPa
Resumen: Despejado
Visibilidad: mayor de 10 km
2017/01/16 10:00 LEMO 161000Z 04006KT 010V080 CAVOK 08/01 Q1027 NOSIG
LEJR - Jeréz, Spain
Distancia de la estación: S 71km
Actualización: 16/01/2017 11:30
Despejado
Despejado
 Viento de N
Viento: N 22 km/h
Temperatura: 10°C
Sensación térmica: 7°C
Rocío: 2°C
Humedad: 58%
Barómetro: 1027 hPa
Resumen: Despejado
Visibilidad: mayor de 10 km
2017/01/16 10:30 LEJR 161030Z 36012KT CAVOK 10/02 Q1027
 
LERT - Rota, Spain
Distancia de la estación: SSO 89km
Actualización: 16/01/2017 11:00
Despejado
Despejado
 Viento de NE
Viento: NE 22 km/h
Temperatura: 9°C
Sensación térmica: 6°C
Rocío: 1°C
Humedad: 58%
Barómetro: 1027 hPa
Resumen: Despejado
Visibilidad: mayor de 10 km
2017/01/16 10:00 LERT 161000Z 05012KT CAVOK 09/01 Q1027 NOSIG
LEMG - Málaga, Spain
Distancia de la estación: ESE 157km
Actualización: 16/01/2017 11:30
Despejado
Despejado
 Viento de O
Viento: O 28 km/h
Temperatura: 14°C
Rocío: 0°C
Humedad: 39%
Barómetro: 1025 hPa
Resumen: Despejado
Visibilidad: mayor de 10 km
2017/01/16 10:30 LEMG 161030Z 28015KT CAVOK 14/00 Q1025 NOSIG
LEBA - Córdoba, Spain
Distancia de la estación: ENE 115km
Actualización: 16/01/2017 11:30
Despejado
Despejado
 Viento de E
Viento: E 11 km/h
Temperatura: 7°C
Sensación térmica: 5°C
Rocío: 1°C
Humedad: 66%
Barómetro: 1028 hPa
Resumen: Despejado
Visibilidad: mayor de 10 km
2017/01/16 10:30 LEBA 161030Z 08006KT 040V120 CAVOK 07/01 Q1028
 
LEGR - Granada, Spain
Distancia de la estación: E 198km
Actualización: 16/01/2017 11:30
Despejado
Despejado
 Viento de variable
Viento: variable 2 km/h
Temperatura: 8°C
Rocío: 1°C
Humedad: 62%
Barómetro: 1026 hPa
Resumen: Despejado
Visibilidad: mayor de 10 km
2017/01/16 10:30 LEGR 161030Z VRB01KT CAVOK 08/01 Q1026
LEAM - Almería, Spain
Distancia de la estación: E 326km
Actualización: 16/01/2017 11:30
Despejado
Despejado
 Viento de O
Viento: O 13 km/h
Temperatura: 15°C
Rocío: 2°C
Humedad: 42%
Barómetro: 1023 hPa
Resumen: Despejado
Visibilidad: mayor de 10 km
2017/01/16 10:30 LEAM 161030Z 26007KT 220V340 CAVOK 15/02 Q1023
LEMD - Madrid/Barajas, Spain
Distancia de la estación: NNE 402km
Actualización: 16/01/2017 11:30
Poco nuboso
Poco nuboso
 Viento de NO
Viento: NO 11 km/h, Racha: 30 km/h
Temperatura: 10°C
Sensación térmica: 8°C
Rocío: 1°C
Humedad: 54%
Barómetro: 1025 hPa
Nubes: Poco nuboso
Visibilidad: 10 km
Detalles de las nubes: Poco nuboso 1676 m
2017/01/16 10:30 LEMD 161030Z 32006G16KT 240V030 9999 FEW055 10/01 Q1025 NOSIG
 
LEVD - Valladolid, Spain
Distancia de la estación: N 492km
Actualización: 16/01/2017 11:30
Despejado
Despejado
 Viento de NNO
Viento: NNO 30 km/h
Temperatura: 5°C
Sensación térmica: 0°C
Rocío: 0°C
Humedad: 70%
Barómetro: 1027 hPa
Resumen: Despejado
Visibilidad: mayor de 10 km
2017/01/16 10:30 LEVD 161030Z 33016KT CAVOK 05/00 Q1027
LEBL - Barcelona, Spain
Distancia de la estación: NE 816km
Actualización: 16/01/2017 11:30
Poco nuboso
Poco nuboso
 Viento de NO
Viento: NO 15 km/h
Temperatura: 10°C
Sensación térmica: 8°C
Rocío: 2°C
Humedad: 58%
Barómetro: 1017 hPa
Nubes: Poco nuboso
Visibilidad: 10 km
Detalles de las nubes: Poco nuboso 1067 m
2017/01/16 10:30 LEBL 161030Z 32008KT 290V350 9999 FEW035 10/02 Q1017 NOSIG
LEVC - Valencia, Spain
Distancia de la estación: ENE 535km
Actualización: 16/01/2017 11:30
Poco nuboso
Poco nuboso
 Viento de ONO
Viento: ONO 31 km/h
Temperatura: 16°C
Rocío: 2°C
Humedad: 39%
Barómetro: 1019 hPa
Nubes: Poco nuboso
Visibilidad: 10 km
Detalles de las nubes: Poco nuboso 1219 m
2017/01/16 10:30 LEVC 161030Z 30017KT 9999 FEW040 16/02 Q1019 NOSIG